Time;durP1;ratioP1;P1;durP2;ratioP2;P2;SDS_P1;SDS_P2;PMS_P1;PMS_P2;Temp;Humidity;BMP_temperature;BMP_pressure;BME280_temperature;BME280_humidity;BME280_pressure;Samples;Min_cycle;Max_cycle;Signal;HPM_P1;HPM_P2
2022/05/29 00:01:23;;;;;;;;;1.00;1.00;;;;;;;;5075512;28;10407;-79
2022/05/29 00:03:51;;;;;;;;;2.00;2.00;;;;;;;;5057778;28;10454;-79
2022/05/29 00:06:18;;;;;;;;;0.00;0.00;;;;;;;;5079796;28;10442;-78
2022/05/29 00:08:46;;;;;;;;;1.25;1.25;;;;;;;;5075453;28;10419;-79
2022/05/29 00:11:15;;;;;;;;;1.00;1.00;;;;;;;;5075284;28;10691;-79
2022/05/29 00:13:45;;;;;;;;;2.00;2.00;;;;;;;;5072800;28;10534;-78
2022/05/29 00:16:12;;;;;;;;;1.00;1.00;;;;;;;;5075929;28;10650;-79
2022/05/29 00:18:41;;;;;;;;;3.25;1.75;;;;;;;;5079807;28;10617;-79
2022/05/29 00:21:09;;;;;;;;;1.25;1.25;;;;;;;;5055438;28;10655;-79
2022/05/29 00:23:40;;;;;;;;;0.00;0.00;;;;;;;;5076192;28;10832;-79
2022/05/29 00:26:07;;;;;;;;;1.75;1.75;;;;;;;;5068001;28;10731;-78
2022/05/29 00:28:35;;;;;;;;;1.00;1.00;;;;;;;;5058242;28;10809;-78
2022/05/29 00:31:04;;;;;;;;;1.25;1.25;;;;;;;;5075923;28;10651;-78
2022/05/29 00:33:31;;;;;;;;;1.00;1.00;;;;;;;;5065619;28;10872;-78
2022/05/29 00:35:58;;;;;;;;;1.00;1.00;;;;;;;;5076697;28;10838;-78
2022/05/29 00:38:26;;;;;;;;;1.50;1.50;;;;;;;;5071647;28;10684;-78
2022/05/29 00:40:57;;;;;;;;;2.00;2.00;;;;;;;;5073768;28;10821;-78
2022/05/29 00:43:25;;;;;;;;;1.00;1.00;;;;;;;;5052431;28;10804;-78
2022/05/29 00:45:56;;;;;;;;;1.00;1.00;;;;;;;;5074469;28;11616;-78
2022/05/29 00:48:25;;;;;;;;;2.00;1.00;;;;;;;;5077196;28;10707;-78
2022/05/29 00:50:54;;;;;;;;;1.00;1.00;;;;;;;;5060303;28;10838;-78
2022/05/29 00:53:22;;;;;;;;;1.00;1.00;;;;;;;;5077165;28;10744;-78
2022/05/29 00:55:52;;;;;;;;;1.00;1.00;;;;;;;;5074492;28;10702;-78
2022/05/29 00:58:22;;;;;;;;;3.25;2.00;;;;;;;;5075582;28;10827;-79
2022/05/29 01:00:51;;;;;;;;;2.00;2.00;;;;;;;;5075192;28;10847;-78
2022/05/29 01:03:18;;;;;;;;;1.00;1.00;;;;;;;;5078007;28;10735;-78
2022/05/29 01:05:47;;;;;;;;;1.00;1.00;;;;;;;;5079094;28;10784;-78
2022/05/29 01:08:18;;;;;;;;;1.00;1.00;;;;;;;;5056304;28;10898;-78
2022/05/29 01:10:57;;;;;;;;;1.50;1.50;;;;;;;;5080853;28;10760;-79
2022/05/29 01:13:37;;;;;;;;;2.00;2.00;;;;;;;;5073941;28;10904;-78
2022/05/29 01:16:08;;;;;;;;;2.00;2.00;;;;;;;;5052907;28;10872;-79
2022/05/29 01:18:38;;;;;;;;;1.25;1.25;;;;;;;;5077651;28;10944;-77
2022/05/29 01:21:18;;;;;;;;;1.00;1.00;;;;;;;;5072118;28;10912;-78
2022/05/29 01:24:02;;;;;;;;;2.00;2.00;;;;;;;;5073975;28;12123;-78
2022/05/29 01:26:57;;;;;;;;;1.00;1.00;;;;;;;;5077749;28;11042;-78
2022/05/29 01:29:33;;;;;;;;;2.00;2.00;;;;;;;;5072922;28;10999;-76
2022/05/29 01:32:06;;;;;;;;;3.00;3.00;;;;;;;;5074645;28;11153;-76
2022/05/29 01:34:37;;;;;;;;;2.00;2.00;;;;;;;;5068886;28;11067;-77
2022/05/29 01:37:10;;;;;;;;;1.50;1.50;;;;;;;;5074886;28;10987;-77
2022/05/29 01:39:42;;;;;;;;;2.00;2.00;;;;;;;;5068656;28;10926;-76
2022/05/29 01:42:16;;;;;;;;;1.00;1.00;;;;;;;;5073613;28;10908;-76
2022/05/29 01:44:48;;;;;;;;;2.00;2.00;;;;;;;;5073121;28;10946;-77
2022/05/29 01:47:18;;;;;;;;;2.00;2.00;;;;;;;;5052237;28;10926;-77
2022/05/29 01:49:51;;;;;;;;;2.00;2.00;;;;;;;;5071118;28;11001;-77
2022/05/29 01:52:23;;;;;;;;;1.00;1.00;;;;;;;;5069082;28;10938;-77
2022/05/29 01:54:54;;;;;;;;;3.00;3.00;;;;;;;;5074494;28;10852;-77
2022/05/29 01:57:25;;;;;;;;;1.00;1.00;;;;;;;;5069405;28;10900;-76
2022/05/29 01:59:58;;;;;;;;;1.75;1.75;;;;;;;;5069557;28;11453;-77
2022/05/29 02:02:37;;;;;;;;;2.25;2.25;;;;;;;;5050816;28;10871;-77
2022/05/29 02:05:10;;;;;;;;;1.00;1.00;;;;;;;;5072216;28;11045;-79
2022/05/29 02:07:52;;;;;;;;;4.00;2.75;;;;;;;;5066853;28;10892;-77
2022/05/29 02:10:25;;;;;;;;;2.00;2.00;;;;;;;;5070637;28;11720;-77
2022/05/29 02:12:59;;;;;;;;;2.00;2.00;;;;;;;;5055837;28;11175;-77
2022/05/29 02:15:33;;;;;;;;;2.00;2.00;;;;;;;;5071382;28;11024;-77
2022/05/29 02:18:02;;;;;;;;;3.00;1.25;;;;;;;;5074904;28;10921;-76
2022/05/29 02:20:34;;;;;;;;;2.75;2.75;;;;;;;;5079502;28;10899;-76
2022/05/29 02:23:08;;;;;;;;;2.75;2.75;;;;;;;;5068242;28;11055;-77
2022/05/29 02:25:37;;;;;;;;;3.00;3.00;;;;;;;;5071964;28;13162;-77
2022/05/29 02:28:08;;;;;;;;;1.50;1.50;;;;;;;;5076179;28;11045;-77
2022/05/29 02:30:42;;;;;;;;;4.50;4.50;;;;;;;;5073090;28;10920;-77
2022/05/29 02:33:12;;;;;;;;;2.00;2.00;;;;;;;;5069154;28;11223;-77
2022/05/29 02:35:46;;;;;;;;;2.75;2.75;;;;;;;;5070929;28;11179;-76
2022/05/29 02:38:18;;;;;;;;;2.00;2.00;;;;;;;;5081867;28;11214;-76
2022/05/29 02:40:52;;;;;;;;;2.00;2.00;;;;;;;;5071965;28;11151;-77
2022/05/29 02:43:23;;;;;;;;;2.00;2.00;;;;;;;;5069058;28;11077;-76
2022/05/29 02:45:56;;;;;;;;;1.25;1.25;;;;;;;;5072850;28;11218;-77
2022/05/29 02:48:38;;;;;;;;;1.50;1.50;;;;;;;;5073708;28;11123;-77
2022/05/29 02:51:12;;;;;;;;;5.25;2.00;;;;;;;;5073907;28;11141;-77
2022/05/29 02:53:44;;;;;;;;;3.00;3.00;;;;;;;;5077821;28;11111;-77
2022/05/29 02:56:12;;;;;;;;;3.75;2.50;;;;;;;;5062149;28;11688;-76
2022/05/29 02:58:42;;;;;;;;;3.50;2.00;;;;;;;;5082972;28;11133;-77
2022/05/29 03:01:29;;;;;;;;;2.50;2.50;;;;;;;;5061622;28;11091;-77
2022/05/29 03:04:17;;;;;;;;;1.25;1.25;;;;;;;;5077813;28;10983;-76
2022/05/29 03:06:49;;;;;;;;;2.50;2.50;;;;;;;;5058548;28;11846;-76
2022/05/29 03:09:28;;;;;;;;;3.75;3.00;;;;;;;;5070055;28;11934;-76
2022/05/29 03:11:56;;;;;;;;;2.00;2.00;;;;;;;;5044052;28;11208;-77
2022/05/29 03:14:32;;;;;;;;;2.00;2.00;;;;;;;;5077656;28;11113;-77
2022/05/29 03:17:11;;;;;;;;;2.75;2.75;;;;;;;;5081502;28;11101;-77
2022/05/29 03:19:47;;;;;;;;;2.50;2.00;;;;;;;;5078510;28;11082;-77
2022/05/29 03:22:20;;;;;;;;;2.50;2.50;;;;;;;;5077211;28;11235;-77
2022/05/29 03:24:55;;;;;;;;;1.75;1.75;;;;;;;;5060594;28;11854;-77
2022/05/29 03:27:27;;;;;;;;;2.00;2.00;;;;;;;;5078464;28;12248;-77
2022/05/29 03:29:59;;;;;;;;;4.00;2.00;;;;;;;;5072755;28;11175;-77
2022/05/29 03:32:29;;;;;;;;;3.25;3.25;;;;;;;;5074826;28;11107;-77
2022/05/29 03:34:56;;;;;;;;;2.00;2.00;;;;;;;;5075680;28;11249;-77
2022/05/29 03:37:24;;;;;;;;;3.50;3.00;;;;;;;;5070796;28;11511;-77
2022/05/29 03:39:51;;;;;;;;;2.00;2.00;;;;;;;;5055711;28;11238;-77
2022/05/29 03:42:18;;;;;;;;;2.25;2.25;;;;;;;;5060542;28;11198;-77
2022/05/29 03:44:45;;;;;;;;;2.00;2.00;;;;;;;;5073925;28;11135;-77
2022/05/29 03:47:13;;;;;;;;;2.00;2.00;;;;;;;;5071244;28;12100;-78
2022/05/29 03:49:42;;;;;;;;;6.50;3.75;;;;;;;;5072158;28;11224;-78
2022/05/29 03:52:09;;;;;;;;;2.00;2.00;;;;;;;;5075174;28;11404;-80
2022/05/29 03:54:37;;;;;;;;;5.50;2.00;;;;;;;;5061424;28;11447;-79
2022/05/29 03:57:05;;;;;;;;;4.00;3.00;;;;;;;;5073617;28;11538;-79
2022/05/29 03:59:32;;;;;;;;;1.25;1.25;;;;;;;;5080488;28;12316;-78
2022/05/29 04:01:59;;;;;;;;;3.00;3.00;;;;;;;;5077519;28;11840;-78
2022/05/29 04:04:27;;;;;;;;;2.75;2.75;;;;;;;;5077626;28;11421;-79
2022/05/29 04:06:56;;;;;;;;;2.25;2.25;;;;;;;;5059733;28;11426;-78
2022/05/29 04:12:08;;;;;;;;;6.00;2.00;;;;;;;;5076555;28;11401;-79
2022/05/29 04:14:40;;;;;;;;;3.00;3.00;;;;;;;;5075994;28;11436;-79
2022/05/29 04:17:09;;;;;;;;;3.75;2.00;;;;;;;;5079822;28;11368;-79
2022/05/29 04:19:37;;;;;;;;;3.00;3.00;;;;;;;;5075401;28;11516;-78
2022/05/29 04:22:09;;;;;;;;;4.00;2.50;;;;;;;;5075954;28;12287;-78
2022/05/29 04:24:37;;;;;;;;;4.50;3.00;;;;;;;;5071614;28;11463;-78
2022/05/29 04:27:05;;;;;;;;;6.75;2.50;;;;;;;;5074153;28;11469;-78
2022/05/29 04:29:33;;;;;;;;;3.25;2.00;;;;;;;;5075004;28;12446;-78
2022/05/29 04:34:45;;;;;;;;;1.00;1.00;;;;;;;;5076556;28;12429;-78
2022/05/29 04:37:14;;;;;;;;;3.50;3.25;;;;;;;;5072358;28;11438;-78
2022/05/29 04:39:41;;;;;;;;;4.00;3.00;;;;;;;;5072150;28;11476;-79
2022/05/29 04:42:10;;;;;;;;;1.75;1.75;;;;;;;;5070687;28;12262;-79
2022/05/29 04:44:38;;;;;;;;;3.75;3.75;;;;;;;;5074723;28;11511;-78
2022/05/29 04:47:05;;;;;;;;;4.00;2.00;;;;;;;;5074429;28;11585;-78
2022/05/29 04:49:33;;;;;;;;;4.00;4.00;;;;;;;;5070723;28;11575;-78
2022/05/29 04:52:00;;;;;;;;;2.00;2.00;;;;;;;;5077838;28;11439;-78
2022/05/29 04:54:29;;;;;;;;;2.00;2.00;;;;;;;;5074534;28;11513;-78
2022/05/29 04:56:56;;;;;;;;;2.75;2.75;;;;;;;;5076719;28;11474;-78
2022/05/29 04:59:23;;;;;;;;;2.75;2.75;;;;;;;;5049794;28;11427;-78
2022/05/29 05:01:50;;;;;;;;;4.00;2.50;;;;;;;;5074948;28;11342;-78
2022/05/29 05:04:18;;;;;;;;;7.25;3.00;;;;;;;;5073452;28;12225;-78
2022/05/29 05:06:45;;;;;;;;;3.00;3.00;;;;;;;;5071669;28;11461;-79
2022/05/29 05:09:12;;;;;;;;;4.00;2.25;;;;;;;;5053297;28;12188;-79
2022/05/29 05:11:41;;;;;;;;;3.25;3.25;;;;;;;;5073057;28;11421;-79
2022/05/29 05:14:08;;;;;;;;;4.00;4.00;;;;;;;;5072109;28;11537;-78
2022/05/29 05:16:36;;;;;;;;;3.00;3.00;;;;;;;;5056582;28;11432;-78
2022/05/29 05:19:03;;;;;;;;;2.75;2.75;;;;;;;;5073171;28;11456;-77
2022/05/29 05:21:31;;;;;;;;;2.00;1.75;;;;;;;;5054012;28;12365;-77
2022/05/29 05:23:58;;;;;;;;;4.00;4.00;;;;;;;;5075224;28;11442;-77
2022/05/29 05:26:26;;;;;;;;;2.00;2.00;;;;;;;;5074949;28;12237;-79
2022/05/29 05:28:54;;;;;;;;;2.25;2.25;;;;;;;;5055029;28;11112;-77
2022/05/29 05:31:22;;;;;;;;;3.00;3.00;;;;;;;;5052241;28;11789;-77
2022/05/29 05:33:49;;;;;;;;;3.50;2.25;;;;;;;;5078304;28;11168;-72
2022/05/29 05:36:16;;;;;;;;;2.25;2.25;;;;;;;;5070754;28;11147;-78
2022/05/29 05:38:44;;;;;;;;;2.00;2.00;;;;;;;;5078310;28;11608;-75
2022/05/29 05:41:12;;;;;;;;;3.75;3.00;;;;;;;;5073297;28;10942;-75
2022/05/29 05:43:40;;;;;;;;;2.00;2.00;;;;;;;;5077843;28;10839;-75
2022/05/29 05:46:09;;;;;;;;;2.50;2.50;;;;;;;;5077693;28;11751;-72
2022/05/29 05:48:38;;;;;;;;;3.00;3.00;;;;;;;;5074220;28;10707;-73
2022/05/29 05:51:05;;;;;;;;;6.00;3.00;;;;;;;;5078479;28;10895;-74
2022/05/29 05:53:32;;;;;;;;;3.25;3.25;;;;;;;;5075619;28;10713;-74
2022/05/29 05:56:00;;;;;;;;;3.50;2.50;;;;;;;;5072733;28;10820;-73
2022/05/29 05:58:28;;;;;;;;;5.50;5.50;;;;;;;;5040915;28;11502;-74
2022/05/29 06:00:55;;;;;;;;;8.00;8.00;;;;;;;;5077762;28;11456;-73
2022/05/29 06:03:23;;;;;;;;;12.00;12.00;;;;;;;;5075704;28;11476;-75
2022/05/29 06:05:51;;;;;;;;;5.75;5.75;;;;;;;;5075136;28;12322;-78
2022/05/29 06:08:18;;;;;;;;;9.50;9.25;;;;;;;;5073510;28;11051;-77
2022/05/29 06:10:46;;;;;;;;;11.25;11.25;;;;;;;;5074717;28;11081;-72
2022/05/29 06:13:13;;;;;;;;;9.00;8.25;;;;;;;;5074364;28;11328;-75
2022/05/29 06:15:44;;;;;;;;;6.25;6.25;;;;;;;;5073092;28;10964;-76
2022/05/29 06:18:11;;;;;;;;;4.00;2.25;;;;;;;;5076847;28;10818;-77
2022/05/29 06:20:40;;;;;;;;;3.25;2.25;;;;;;;;5075106;28;10603;-73
2022/05/29 06:23:07;;;;;;;;;1.75;1.75;;;;;;;;5066962;28;10601;-74
2022/05/29 06:25:35;;;;;;;;;2.00;2.00;;;;;;;;5067308;28;10533;-72
2022/05/29 06:28:02;;;;;;;;;3.00;3.00;;;;;;;;5068210;28;11867;-73
2022/05/29 06:30:30;;;;;;;;;2.00;2.00;;;;;;;;5068906;28;10262;-72
2022/05/29 06:32:59;;;;;;;;;6.25;2.00;;;;;;;;5073054;28;10362;-70
2022/05/29 06:35:28;;;;;;;;;1.75;1.75;;;;;;;;5078149;28;10363;-72
2022/05/29 06:37:57;;;;;;;;;3.00;1.00;;;;;;;;5074375;28;10235;-71
2022/05/29 06:40:28;;;;;;;;;1.00;1.00;;;;;;;;5072727;28;10112;-73
2022/05/29 06:42:55;;;;;;;;;0.50;0.50;;;;;;;;5069485;28;10260;-70
2022/05/29 06:45:22;;;;;;;;;1.00;1.00;;;;;;;;5067000;28;10026;-72
2022/05/29 06:47:50;;;;;;;;;2.00;2.00;;;;;;;;5066678;28;10038;-71
2022/05/29 06:50:17;;;;;;;;;1.75;1.75;;;;;;;;5075559;28;10821;-73
2022/05/29 06:52:45;;;;;;;;;4.50;4.50;;;;;;;;5075607;28;10534;-72
2022/05/29 06:55:15;;;;;;;;;2.00;2.00;;;;;;;;5076229;28;10103;-71
2022/05/29 06:57:44;;;;;;;;;1.75;1.75;;;;;;;;5069185;28;9761;-72
2022/05/29 07:08:29;;;;;;;;;1.50;1.00;;;;;;;;5080339;28;9594;-71
2022/05/29 07:11:02;;;;;;;;;1.00;1.00;;;;;;;;5075283;28;9695;-72
2022/05/29 07:13:31;;;;;;;;;1.75;1.75;;;;;;;;5081019;28;10414;-71
2022/05/29 07:15:58;;;;;;;;;2.00;2.00;;;;;;;;5077774;28;9783;-72
2022/05/29 07:18:26;;;;;;;;;1.25;0.50;;;;;;;;5078280;28;9701;-72
2022/05/29 07:20:54;;;;;;;;;1.00;1.00;;;;;;;;5078453;28;9539;-71
2022/05/29 07:23:21;;;;;;;;;3.00;1.00;;;;;;;;5079729;28;9421;-71
2022/05/29 07:25:48;;;;;;;;;1.33;1.33;;;;;;;;5084501;28;9490;-72
2022/05/29 07:28:17;;;;;;;;;4.00;1.00;;;;;;;;5077780;28;9606;-72
2022/05/29 07:30:47;;;;;;;;;1.00;1.00;;;;;;;;5083654;28;9565;-72
2022/05/29 07:33:15;;;;;;;;;1.00;1.00;;;;;;;;5084432;28;9473;-73
2022/05/29 07:35:42;;;;;;;;;3.33;0.67;;;;;;;;5073866;28;9286;-72
2022/05/29 07:38:10;;;;;;;;;1.00;1.00;;;;;;;;5080928;28;9203;-73
2022/05/29 07:40:37;;;;;;;;;3.00;1.00;;;;;;;;5084666;28;9205;-72
2022/05/29 07:43:18;;;;;;;;;1.00;1.00;;;;;;;;5081119;28;9094;-75
2022/05/29 07:45:48;;;;;;;;;0.33;0.00;;;;;;;;5078440;28;9856;-72
2022/05/29 07:48:15;;;;;;;;;1.00;1.00;;;;;;;;5082338;28;9780;-74
2022/05/29 07:50:43;;;;;;;;;1.00;1.00;;;;;;;;5080218;28;9192;-73
2022/05/29 07:53:10;;;;;;;;;1.00;1.00;;;;;;;;5062417;28;9102;-74
2022/05/29 07:55:38;;;;;;;;;1.00;1.00;;;;;;;;5077323;28;9139;-74
2022/05/29 07:58:07;;;;;;;;;0.25;0.25;;;;;;;;5075749;28;9021;-74
2022/05/29 08:00:35;;;;;;;;;2.00;1.00;;;;;;;;5077998;28;8791;-73
2022/05/29 08:03:04;;;;;;;;;0.00;0.00;;;;;;;;5081841;28;9052;-73
2022/05/29 08:05:35;;;;;;;;;1.50;0.00;;;;;;;;5078680;28;8866;-72
2022/05/29 08:08:05;;;;;;;;;0.25;0.25;;;;;;;;5077615;28;8870;-75
2022/05/29 08:10:34;;;;;;;;;1.00;1.00;;;;;;;;5078125;28;9597;-75
2022/05/29 08:13:01;;;;;;;;;0.50;0.00;;;;;;;;5075426;28;8912;-72
2022/05/29 08:15:29;;;;;;;;;1.00;1.00;;;;;;;;5081208;28;8955;-75
2022/05/29 08:17:56;;;;;;;;;1.50;0.00;;;;;;;;5071955;28;9797;-73
2022/05/29 08:20:27;;;;;;;;;1.00;1.00;;;;;;;;5078995;28;8878;-74
2022/05/29 08:22:55;;;;;;;;;1.00;1.00;;;;;;;;5080509;28;8883;-74
2022/05/29 08:30:54;;;;;;;;;2.25;0.00;;;;;;;;5079180;28;8776;-75
2022/05/29 08:33:23;;;;;;;;;0.00;0.00;;;;;;;;5080284;28;9989;-76
2022/05/29 08:35:54;;;;;;;;;0.75;0.75;;;;;;;;5077936;28;9753;-75
2022/05/29 08:38:22;;;;;;;;;1.50;0.50;;;;;;;;5074393;28;8878;-75
2022/05/29 08:40:51;;;;;;;;;0.00;0.00;;;;;;;;5075094;28;8950;-74
2022/05/29 08:43:24;;;;;;;;;0.00;0.00;;;;;;;;5070261;28;8880;-74
2022/05/29 08:45:53;;;;;;;;;0.50;0.50;;;;;;;;5076202;28;8925;-74
2022/05/29 08:48:22;;;;;;;;;1.00;1.00;;;;;;;;5074276;28;8872;-74
2022/05/29 08:51:03;;;;;;;;;0.75;0.75;;;;;;;;5075551;28;8912;-74
2022/05/29 08:53:37;;;;;;;;;0.50;0.50;;;;;;;;5070903;28;8853;-76
2022/05/29 08:56:15;;;;;;;;;0.00;0.00;;;;;;;;5073882;28;8856;-75
2022/05/29 08:58:56;;;;;;;;;0.00;0.00;;;;;;;;5075051;28;8864;-75
2022/05/29 09:01:34;;;;;;;;;0.00;0.00;;;;;;;;5075614;28;9558;-75
2022/05/29 09:04:03;;;;;;;;;0.25;0.00;;;;;;;;5052169;28;8868;-75
2022/05/29 09:06:37;;;;;;;;;2.00;0.25;;;;;;;;5078471;28;9001;-74
2022/05/29 09:09:07;;;;;;;;;0.50;0.00;;;;;;;;5077651;28;8847;-76
2022/05/29 09:11:38;;;;;;;;;0.75;0.75;;;;;;;;5070356;28;8989;-75
2022/05/29 09:14:18;;;;;;;;;1.00;1.00;;;;;;;;5075048;28;9009;-75
2022/05/29 09:16:50;;;;;;;;;0.00;0.00;;;;;;;;5079443;28;8862;-75
2022/05/29 09:19:30;;;;;;;;;1.00;1.00;;;;;;;;5052013;28;8854;-75
2022/05/29 09:22:04;;;;;;;;;0.00;0.00;;;;;;;;5070339;28;8892;-74
2022/05/29 09:24:55;;;;;;;;;2.00;0.00;;;;;;;;5079957;28;9663;-77
2022/05/29 09:27:23;;;;;;;;;1.50;0.00;;;;;;;;5078725;28;8922;-76
2022/05/29 09:29:51;;;;;;;;;0.00;0.00;;;;;;;;5078132;28;9049;-75
2022/05/29 09:32:22;;;;;;;;;0.50;0.00;;;;;;;;5078986;28;8815;-74
2022/05/29 09:34:58;;;;;;;;;0.00;0.00;;;;;;;;5075790;28;8860;-76
2022/05/29 09:37:34;;;;;;;;;0.00;0.00;;;;;;;;5077085;28;8861;-76
2022/05/29 09:40:03;;;;;;;;;0.00;0.00;;;;;;;;5074535;28;8874;-75
2022/05/29 09:42:34;;;;;;;;;0.00;0.00;;;;;;;;5068322;28;8889;-75
2022/05/29 09:45:11;;;;;;;;;0.00;0.00;;;;;;;;5064643;28;8868;-74
2022/05/29 09:50:35;;;;;;;;;0.00;0.00;;;;;;;;5058839;28;8830;-74
2022/05/29 09:53:05;;;;;;;;;0.00;0.00;;;;;;;;5059284;28;8908;-74
2022/05/29 09:55:36;;;;;;;;;2.00;1.00;;;;;;;;5057485;28;8862;-76
2022/05/29 09:58:08;;;;;;;;;0.00;0.00;;;;;;;;5056527;28;8882;-74
2022/05/29 10:00:37;;;;;;;;;22.25;18.50;;;;;;;;5037550;28;8810;-76
2022/05/29 10:03:07;;;;;;;;;15.50;15.50;;;;;;;;5058977;28;8862;-74
2022/05/29 10:05:38;;;;;;;;;17.50;17.50;;;;;;;;5062438;28;8877;-74
2022/05/29 10:08:20;;;;;;;;;3.75;3.75;;;;;;;;5058692;28;8842;-75
2022/05/29 10:10:48;;;;;;;;;0.00;0.00;;;;;;;;5058323;28;8944;-74
2022/05/29 10:13:35;;;;;;;;;2.00;1.00;;;;;;;;5060530;28;8862;-75
2022/05/29 10:16:02;;;;;;;;;9.25;9.25;;;;;;;;5051086;28;8858;-74
2022/05/29 10:18:35;;;;;;;;;1.00;1.00;;;;;;;;5060572;28;10067;-75
2022/05/29 10:21:08;;;;;;;;;12.25;6.75;;;;;;;;5048964;28;9672;-75
2022/05/29 10:23:38;;;;;;;;;16.00;16.00;;;;;;;;5052760;28;8883;-74
2022/05/29 10:26:11;;;;;;;;;3.75;3.75;;;;;;;;5055681;28;8871;-75
2022/05/29 10:28:40;;;;;;;;;1.00;1.00;;;;;;;;5052601;28;8865;-74
2022/05/29 10:31:08;;;;;;;;;1.50;1.00;;;;;;;;5048467;28;8780;-75
2022/05/29 10:33:36;;;;;;;;;1.00;1.00;;;;;;;;5051321;28;8905;-74
2022/05/29 10:36:13;;;;;;;;;3.25;1.00;;;;;;;;5055349;28;8854;-74
2022/05/29 10:38:43;;;;;;;;;21.25;17.75;;;;;;;;5058330;28;8846;-74
2022/05/29 10:41:11;;;;;;;;;7.00;7.00;;;;;;;;5063123;28;8860;-75
2022/05/29 10:43:50;;;;;;;;;1.25;1.25;;;;;;;;5058369;28;9716;-73
2022/05/29 10:46:20;;;;;;;;;0.75;0.75;;;;;;;;5077763;28;8883;-74
2022/05/29 10:49:02;;;;;;;;;1.50;1.00;;;;;;;;5086283;28;8877;-73
2022/05/29 10:51:41;;;;;;;;;0.00;0.00;;;;;;;;5081300;28;9669;-73
2022/05/29 10:54:31;;;;;;;;;0.80;0.80;;;;;;;;5050417;28;8978;-73
2022/05/29 10:57:22;;;;;;;;;0.00;0.00;;;;;;;;5083169;28;8959;-74
2022/05/29 11:00:05;;;;;;;;;0.00;0.00;;;;;;;;5078565;28;8859;-76
2022/05/29 11:06:02;;;;;;;;;1.00;1.00;;;;;;;;5080063;28;8835;-76
2022/05/29 11:08:37;;;;;;;;;0.00;0.00;;;;;;;;5077877;28;8869;-74
2022/05/29 11:11:18;;;;;;;;;1.00;1.00;;;;;;;;5078078;28;9321;-76
2022/05/29 11:14:03;;;;;;;;;2.00;2.00;;;;;;;;5078723;28;8849;-73
2022/05/29 11:16:40;;;;;;;;;1.40;1.40;;;;;;;;5061434;28;8876;-74
2022/05/29 11:19:36;;;;;;;;;1.00;1.00;;;;;;;;5077584;28;8865;-74
2022/05/29 11:22:13;;;;;;;;;2.00;1.00;;;;;;;;5081740;28;9111;-74
2022/05/29 11:24:57;;;;;;;;;8.00;6.60;;;;;;;;5077959;28;8870;-74
2022/05/29 11:27:41;;;;;;;;;1.00;1.00;;;;;;;;5072230;28;8862;-74
2022/05/29 11:30:11;;;;;;;;;2.60;2.60;;;;;;;;5070995;28;8892;-74
2022/05/29 11:32:55;;;;;;;;;2.60;2.60;;;;;;;;5077990;28;8880;-74
2022/05/29 11:35:36;;;;;;;;;1.00;1.00;;;;;;;;5072447;28;8890;-75
2022/05/29 11:38:26;;;;;;;;;6.00;5.00;;;;;;;;5071385;28;8862;-75
2022/05/29 11:40:57;;;;;;;;;1.00;1.00;;;;;;;;5077130;28;8865;-74
2022/05/29 11:43:30;;;;;;;;;3.80;2.00;;;;;;;;5081096;28;8901;-75
2022/05/29 11:51:46;;;;;;;;;1.00;1.00;;;;;;;;5074878;28;8829;-74
2022/05/29 11:54:17;;;;;;;;;0.80;0.60;;;;;;;;5075362;28;8880;-75
2022/05/29 11:56:48;;;;;;;;;0.00;0.00;;;;;;;;5078202;28;8993;-74
2022/05/29 11:59:23;;;;;;;;;0.00;0.00;;;;;;;;5073599;28;8861;-74
2022/05/29 12:01:54;;;;;;;;;0.00;0.00;;;;;;;;5071758;28;8814;-72
2022/05/29 12:04:28;;;;;;;;;0.00;0.00;;;;;;;;5075655;28;8974;-73
2022/05/29 12:07:01;;;;;;;;;0.00;0.00;;;;;;;;5072910;28;8914;-74
2022/05/29 12:09:34;;;;;;;;;1.00;1.00;;;;;;;;5076204;28;8866;-74
2022/05/29 12:12:07;;;;;;;;;1.00;1.00;;;;;;;;5080934;28;8888;-74
2022/05/29 12:14:40;;;;;;;;;0.00;0.00;;;;;;;;5078576;28;8854;-74
2022/05/29 12:17:12;;;;;;;;;0.00;0.00;;;;;;;;5079897;28;8862;-74
2022/05/29 12:19:42;;;;;;;;;0.50;0.50;;;;;;;;5077964;28;8852;-74
2022/05/29 12:22:11;;;;;;;;;1.00;1.00;;;;;;;;5072531;28;8893;-74
2022/05/29 12:24:42;;;;;;;;;0.25;0.25;;;;;;;;5077285;28;8895;-74
2022/05/29 12:27:12;;;;;;;;;1.00;1.00;;;;;;;;5076180;28;8885;-74
2022/05/29 12:29:45;;;;;;;;;0.00;0.00;;;;;;;;5073987;28;8875;-74
2022/05/29 12:32:18;;;;;;;;;0.75;0.75;;;;;;;;5074437;28;8852;-74
2022/05/29 12:34:51;;;;;;;;;1.00;1.00;;;;;;;;5073728;28;8913;-74
2022/05/29 12:37:48;;;;;;;;;1.25;1.00;;;;;;;;5074724;28;8886;-74
2022/05/29 12:40:31;;;;;;;;;1.00;1.00;;;;;;;;5076805;28;8870;-74
2022/05/29 12:43:21;;;;;;;;;2.50;1.00;;;;;;;;5073819;28;8876;-73
2022/05/29 12:45:59;;;;;;;;;0.50;0.50;;;;;;;;5056873;28;8966;-74
2022/05/29 12:49:01;;;;;;;;;1.00;1.00;;;;;;;;5057713;28;8846;-74
2022/05/29 12:51:49;;;;;;;;;1.00;1.00;;;;;;;;5044639;28;8840;-73
2022/05/29 12:54:31;;;;;;;;;2.00;0.75;;;;;;;;5052616;28;8860;-74
2022/05/29 12:57:39;;;;;;;;;1.25;1.00;;;;;;;;5058391;28;8877;-75
2022/05/29 13:00:44;;;;;;;;;1.00;1.00;;;;;;;;5041029;28;8908;-74
2022/05/29 13:03:59;;;;;;;;;1.25;1.00;;;;;;;;5043297;28;8852;-75
2022/05/29 13:06:45;;;;;;;;;1.00;1.00;;;;;;;;5050851;28;8899;-74
2022/05/29 13:09:34;;;;;;;;;1.80;1.80;;;;;;;;5053627;28;8883;-75
2022/05/29 13:12:05;;;;;;;;;3.80;3.80;;;;;;;;5056976;28;8876;-75
2022/05/29 13:14:35;;;;;;;;;2.00;2.00;;;;;;;;5050335;28;8975;-76
2022/05/29 13:17:05;;;;;;;;;1.00;1.00;;;;;;;;5057249;28;8962;-78
2022/05/29 13:20:00;;;;;;;;;2.00;2.00;;;;;;;;5049959;28;8856;-77
2022/05/29 13:22:52;;;;;;;;;3.00;3.00;;;;;;;;5054298;28;8886;-77
2022/05/29 13:25:23;;;;;;;;;1.00;1.00;;;;;;;;5036782;28;8859;-79
2022/05/29 13:27:51;;;;;;;;;1.00;1.00;;;;;;;;5048371;28;8933;-75
2022/05/29 13:30:43;;;;;;;;;2.00;2.00;;;;;;;;5053212;28;8933;-75
2022/05/29 13:33:44;;;;;;;;;2.00;2.00;;;;;;;;5031643;28;8992;-75
2022/05/29 13:37:09;;;;;;;;;2.50;2.50;;;;;;;;5049231;28;9697;-75
2022/05/29 13:40:03;;;;;;;;;3.25;1.75;;;;;;;;5049029;28;8904;-74
2022/05/29 13:42:49;;;;;;;;;1.50;1.50;;;;;;;;5046750;28;8860;-74
2022/05/29 13:46:01;;;;;;;;;2.00;2.00;;;;;;;;5069265;28;8870;-73
2022/05/29 13:48:30;;;;;;;;;1.40;1.40;;;;;;;;5048851;28;8852;-75
2022/05/29 13:51:02;;;;;;;;;1.60;1.60;;;;;;;;5069752;28;8844;-75
2022/05/29 13:53:51;;;;;;;;;2.20;2.00;;;;;;;;5072019;28;8889;-76
2022/05/29 13:56:20;;;;;;;;;0.40;0.40;;;;;;;;5080642;28;9627;-75
2022/05/29 14:04:47;;;;;;;;;1.00;1.00;;;;;;;;5080486;28;8822;-74
2022/05/29 14:07:27;;;;;;;;;1.50;1.50;;;;;;;;5079948;28;8932;-75
2022/05/29 14:10:21;;;;;;;;;2.00;2.00;;;;;;;;5075171;28;9000;-75
2022/05/29 14:13:29;;;;;;;;;2.00;2.00;;;;;;;;5080357;28;9215;-75
2022/05/29 14:15:59;;;;;;;;;2.00;2.00;;;;;;;;5077908;28;8878;-75
2022/05/29 14:18:32;;;;;;;;;1.00;1.00;;;;;;;;5086911;28;9616;-74
2022/05/29 14:21:23;;;;;;;;;2.00;2.00;;;;;;;;5086501;28;9674;-75
2022/05/29 14:24:21;;;;;;;;;2.00;2.00;;;;;;;;5083833;28;8892;-75
2022/05/29 14:27:16;;;;;;;;;3.00;2.00;;;;;;;;5025925;28;8902;-75
2022/05/29 14:30:06;;;;;;;;;3.00;3.00;;;;;;;;5080976;28;8872;-75
2022/05/29 14:32:59;;;;;;;;;3.00;2.00;;;;;;;;5049776;28;8824;-74
2022/05/29 14:35:41;;;;;;;;;1.50;1.50;;;;;;;;5072310;28;8869;-75
2022/05/29 14:38:21;;;;;;;;;2.00;2.00;;;;;;;;5078486;28;8836;-75
2022/05/29 14:40:53;;;;;;;;;2.20;2.20;;;;;;;;5081874;28;8893;-74
2022/05/29 14:43:24;;;;;;;;;3.80;2.00;;;;;;;;5080406;28;8869;-74
2022/05/29 14:46:06;;;;;;;;;0.20;0.20;;;;;;;;5083276;28;8874;-75
2022/05/29 14:48:39;;;;;;;;;2.20;2.20;;;;;;;;5083919;28;8887;-74
2022/05/29 14:51:10;;;;;;;;;2.00;2.00;;;;;;;;5080706;28;8855;-74
2022/05/29 14:53:45;;;;;;;;;2.00;2.00;;;;;;;;5077393;28;8843;-75
2022/05/29 14:56:12;;;;;;;;;2.00;2.00;;;;;;;;5077916;28;8951;-75
2022/05/29 14:58:44;;;;;;;;;3.00;2.00;;;;;;;;5075575;28;8878;-74
2022/05/29 15:01:17;;;;;;;;;1.40;1.40;;;;;;;;5078466;28;8812;-74
2022/05/29 15:03:47;;;;;;;;;3.20;2.00;;;;;;;;5080369;28;8995;-75
2022/05/29 15:06:20;;;;;;;;;1.00;1.00;;;;;;;;5083228;28;8878;-75
2022/05/29 15:11:37;;;;;;;;;1.80;1.80;;;;;;;;5078665;28;8842;-74
2022/05/29 15:14:09;;;;;;;;;1.00;1.00;;;;;;;;5085366;28;8882;-74
2022/05/29 15:16:47;;;;;;;;;1.40;1.40;;;;;;;;5081339;28;8896;-74
2022/05/29 15:19:16;;;;;;;;;2.00;2.00;;;;;;;;5080479;28;8874;-74
2022/05/29 15:24:34;;;;;;;;;1.40;1.40;;;;;;;;5077135;28;8858;-74
2022/05/29 15:27:06;;;;;;;;;2.00;2.00;;;;;;;;5083855;28;8877;-74
2022/05/29 15:29:38;;;;;;;;;1.00;1.00;;;;;;;;5083129;28;8914;-74
2022/05/29 15:32:08;;;;;;;;;2.40;2.40;;;;;;;;5077428;28;8914;-74
2022/05/29 15:34:55;;;;;;;;;1.00;1.00;;;;;;;;5082652;28;8878;-74
2022/05/29 15:37:40;;;;;;;;;1.40;1.40;;;;;;;;5064768;28;8886;-74
2022/05/29 15:40:13;;;;;;;;;1.00;1.00;;;;;;;;5085589;28;8862;-74
2022/05/29 15:42:54;;;;;;;;;2.00;2.00;;;;;;;;5084552;28;8859;-74
2022/05/29 15:45:34;;;;;;;;;2.60;2.60;;;;;;;;5085953;28;8893;-74
2022/05/29 15:48:33;;;;;;;;;2.60;2.60;;;;;;;;5083621;28;8855;-74
2022/05/29 15:51:10;;;;;;;;;3.00;3.00;;;;;;;;5061250;28;8893;-74
2022/05/29 15:54:11;;;;;;;;;1.00;1.00;;;;;;;;5084878;28;8854;-74
2022/05/29 15:56:46;;;;;;;;;1.00;1.00;;;;;;;;5005936;28;8953;-75
2022/05/29 15:59:25;;;;;;;;;1.60;1.60;;;;;;;;5060799;28;8894;-74
2022/05/29 16:02:14;;;;;;;;;1.00;1.00;;;;;;;;5059508;28;8800;-75
2022/05/29 16:04:44;;;;;;;;;1.00;1.00;;;;;;;;5083315;28;8879;-75
2022/05/29 16:07:13;;;;;;;;;2.00;2.00;;;;;;;;5083834;28;8907;-75
2022/05/29 16:09:58;;;;;;;;;1.00;1.00;;;;;;;;5070361;28;8931;-74
2022/05/29 16:12:28;;;;;;;;;1.00;1.00;;;;;;;;5072429;28;8888;-75